Ash, North Carolina
Current Conditions -  °F | °C
As of 12:53 AM on Thursday 23 Oct 2014 (Local Time) from KCRE Reporting Station
Clear Clear  
Wind Chill: 52°   Ceiling: Unl
Heat Index: 52°   Visibility: 10mi
Dew Point: 44°   Wind: 6mph
Humidity: 74%   Direction: 330°NNW
Pressure: 30.04"   Gusts: NA
Location:  34.04°N, 78.52°W
Report Text: KCRE 230453Z AUTO 33005KT 10SM CLR 11/07 A3004 RMK AO1 SLP172 T01110067 402060106
Loading
Personal Weather Stations






























Interactive Weather Map
Tropical Storm Tracking
New forecast layout! Learn more

10-Day Weather Forecast

Advertisements
Track Severe Weather on mobile